sensor_id;sensor_type;location;lat;lon;timestamp;P1;durP1;ratioP1;P2;durP2;ratioP2
31206;SDS011;17834;52.992;8.856;2023-07-29T00:00:44;32.75;;;13.02;;
31206;SDS011;17834;52.992;8.856;2023-07-29T00:03:09;20.60;;;9.85;;
31206;SDS011;17834;52.992;8.856;2023-07-29T00:05:38;27.25;;;11.15;;
31206;SDS011;17834;52.992;8.856;2023-07-29T00:08:05;19.00;;;8.65;;
31206;SDS011;17834;52.992;8.856;2023-07-29T00:10:31;16.70;;;8.98;;
31206;SDS011;17834;52.992;8.856;2023-07-29T00:12:58;17.25;;;8.63;;
31206;SDS011;17834;52.992;8.856;2023-07-29T00:15:23;22.73;;;11.18;;
31206;SDS011;17834;52.992;8.856;2023-07-29T00:17:49;21.83;;;11.35;;
31206;SDS011;17834;52.992;8.856;2023-07-29T00:20:15;16.77;;;8.50;;
31206;SDS011;17834;52.992;8.856;2023-07-29T00:22:40;23.08;;;10.68;;
31206;SDS011;17834;52.992;8.856;2023-07-29T00:25:06;21.08;;;9.50;;
31206;SDS011;17834;52.992;8.856;2023-07-29T00:27:32;18.60;;;8.90;;
31206;SDS011;17834;52.992;8.856;2023-07-29T00:29:57;17.60;;;9.23;;
31206;SDS011;17834;52.992;8.856;2023-07-29T00:32:23;17.75;;;9.13;;
31206;SDS011;17834;52.992;8.856;2023-07-29T00:34:48;18.35;;;9.73;;
31206;SDS011;17834;52.992;8.856;2023-07-29T00:37:14;21.33;;;10.63;;
31206;SDS011;17834;52.992;8.856;2023-07-29T00:39:40;18.42;;;8.57;;
31206;SDS011;17834;52.992;8.856;2023-07-29T00:42:06;18.35;;;8.60;;
31206;SDS011;17834;52.992;8.856;2023-07-29T00:44:31;19.77;;;8.98;;
31206;SDS011;17834;52.992;8.856;2023-07-29T00:46:57;16.92;;;8.02;;
31206;SDS011;17834;52.992;8.856;2023-07-29T00:49:25;24.88;;;10.57;;
31206;SDS011;17834;52.992;8.856;2023-07-29T00:51:51;22.48;;;10.43;;
31206;SDS011;17834;52.992;8.856;2023-07-29T00:54:17;19.65;;;9.13;;
31206;SDS011;17834;52.992;8.856;2023-07-29T00:56:42;16.45;;;7.90;;
31206;SDS011;17834;52.992;8.856;2023-07-29T00:59:08;24.90;;;11.88;;
31206;SDS011;17834;52.992;8.856;2023-07-29T01:01:34;16.75;;;8.60;;
31206;SDS011;17834;52.992;8.856;2023-07-29T01:04:00;23.77;;;11.23;;
31206;SDS011;17834;52.992;8.856;2023-07-29T01:06:42;23.50;;;10.48;;
31206;SDS011;17834;52.992;8.856;2023-07-29T01:09:29;25.77;;;11.68;;
31206;SDS011;17834;52.992;8.856;2023-07-29T01:14:41;31.23;;;12.48;;
31206;SDS011;17834;52.992;8.856;2023-07-29T01:17:29;34.50;;;13.75;;
31206;SDS011;17834;52.992;8.856;2023-07-29T01:20:00;24.67;;;10.95;;
31206;SDS011;17834;52.992;8.856;2023-07-29T01:22:36;32.58;;;13.63;;
31206;SDS011;17834;52.992;8.856;2023-07-29T01:25:02;38.25;;;13.95;;
31206;SDS011;17834;52.992;8.856;2023-07-29T01:27:29;31.27;;;13.65;;
31206;SDS011;17834;52.992;8.856;2023-07-29T01:29:56;33.88;;;13.95;;
31206;SDS011;17834;52.992;8.856;2023-07-29T01:35:10;35.97;;;15.48;;
31206;SDS011;17834;52.992;8.856;2023-07-29T01:37:48;32.88;;;13.23;;
31206;SDS011;17834;52.992;8.856;2023-07-29T01:40:17;27.55;;;11.50;;
31206;SDS011;17834;52.992;8.856;2023-07-29T01:42:44;29.35;;;12.07;;
31206;SDS011;17834;52.992;8.856;2023-07-29T01:45:11;27.55;;;11.95;;
31206;SDS011;17834;52.992;8.856;2023-07-29T01:47:36;35.60;;;13.93;;
31206;SDS011;17834;52.992;8.856;2023-07-29T01:50:05;29.30;;;11.65;;
31206;SDS011;17834;52.992;8.856;2023-07-29T01:52:31;26.27;;;12.65;;
31206;SDS011;17834;52.992;8.856;2023-07-29T01:54:57;27.30;;;12.57;;
31206;SDS011;17834;52.992;8.856;2023-07-29T01:57:22;25.92;;;13.05;;
31206;SDS011;17834;52.992;8.856;2023-07-29T01:59:48;36.97;;;14.73;;
31206;SDS011;17834;52.992;8.856;2023-07-29T02:02:13;33.78;;;13.52;;
31206;SDS011;17834;52.992;8.856;2023-07-29T02:04:39;29.25;;;12.80;;
31206;SDS011;17834;52.992;8.856;2023-07-29T02:07:04;37.17;;;14.75;;
31206;SDS011;17834;52.992;8.856;2023-07-29T02:09:30;34.60;;;14.35;;
31206;SDS011;17834;52.992;8.856;2023-07-29T02:11:56;34.65;;;14.68;;
31206;SDS011;17834;52.992;8.856;2023-07-29T02:14:22;37.58;;;15.90;;
31206;SDS011;17834;52.992;8.856;2023-07-29T02:16:48;43.78;;;16.85;;
31206;SDS011;17834;52.992;8.856;2023-07-29T02:19:14;35.05;;;15.25;;
31206;SDS011;17834;52.992;8.856;2023-07-29T02:21:40;33.70;;;14.32;;
31206;SDS011;17834;52.992;8.856;2023-07-29T02:24:05;42.45;;;16.27;;
31206;SDS011;17834;52.992;8.856;2023-07-29T02:26:31;38.47;;;15.68;;
31206;SDS011;17834;52.992;8.856;2023-07-29T02:28:56;34.78;;;14.23;;
31206;SDS011;17834;52.992;8.856;2023-07-29T02:31:23;42.90;;;15.32;;
31206;SDS011;17834;52.992;8.856;2023-07-29T02:33:49;34.08;;;14.35;;
31206;SDS011;17834;52.992;8.856;2023-07-29T02:36:15;40.72;;;14.18;;
31206;SDS011;17834;52.992;8.856;2023-07-29T02:38:42;31.42;;;13.07;;
31206;SDS011;17834;52.992;8.856;2023-07-29T02:41:08;32.67;;;13.40;;
31206;SDS011;17834;52.992;8.856;2023-07-29T02:43:34;29.27;;;12.77;;
31206;SDS011;17834;52.992;8.856;2023-07-29T02:46:01;34.05;;;13.40;;
31206;SDS011;17834;52.992;8.856;2023-07-29T02:48:27;49.25;;;15.88;;
31206;SDS011;17834;52.992;8.856;2023-07-29T02:50:53;38.38;;;14.30;;
31206;SDS011;17834;52.992;8.856;2023-07-29T02:53:19;30.35;;;13.43;;
31206;SDS011;17834;52.992;8.856;2023-07-29T02:55:45;37.22;;;13.10;;
31206;SDS011;17834;52.992;8.856;2023-07-29T02:58:10;31.83;;;13.32;;
31206;SDS011;17834;52.992;8.856;2023-07-29T03:00:36;46.95;;;15.13;;
31206;SDS011;17834;52.992;8.856;2023-07-29T03:03:01;29.55;;;14.23;;
31206;SDS011;17834;52.992;8.856;2023-07-29T03:05:27;35.75;;;14.23;;
31206;SDS011;17834;52.992;8.856;2023-07-29T03:07:53;31.23;;;14.57;;
31206;SDS011;17834;52.992;8.856;2023-07-29T03:10:19;45.78;;;14.05;;
31206;SDS011;17834;52.992;8.856;2023-07-29T03:12:45;44.10;;;15.13;;
31206;SDS011;17834;52.992;8.856;2023-07-29T03:15:11;32.42;;;12.85;;
31206;SDS011;17834;52.992;8.856;2023-07-29T03:17:37;30.38;;;12.73;;
31206;SDS011;17834;52.992;8.856;2023-07-29T03:20:02;27.02;;;12.77;;
31206;SDS011;17834;52.992;8.856;2023-07-29T03:22:28;30.63;;;12.63;;
31206;SDS011;17834;52.992;8.856;2023-07-29T03:24:54;28.15;;;11.57;;
31206;SDS011;17834;52.992;8.856;2023-07-29T03:27:19;31.73;;;11.98;;
31206;SDS011;17834;52.992;8.856;2023-07-29T03:29:45;25.55;;;11.43;;
31206;SDS011;17834;52.992;8.856;2023-07-29T03:32:11;33.28;;;12.48;;
31206;SDS011;17834;52.992;8.856;2023-07-29T03:34:37;45.45;;;14.98;;
31206;SDS011;17834;52.992;8.856;2023-07-29T03:37:03;28.42;;;12.10;;
31206;SDS011;17834;52.992;8.856;2023-07-29T03:39:29;36.83;;;13.38;;
31206;SDS011;17834;52.992;8.856;2023-07-29T03:41:54;39.78;;;13.70;;
31206;SDS011;17834;52.992;8.856;2023-07-29T03:44:20;31.45;;;13.73;;
31206;SDS011;17834;52.992;8.856;2023-07-29T03:46:45;41.30;;;12.88;;
31206;SDS011;17834;52.992;8.856;2023-07-29T03:49:11;38.17;;;12.95;;
31206;SDS011;17834;52.992;8.856;2023-07-29T03:51:36;32.33;;;12.05;;
31206;SDS011;17834;52.992;8.856;2023-07-29T03:54:02;30.42;;;12.00;;
31206;SDS011;17834;52.992;8.856;2023-07-29T03:56:28;27.13;;;12.20;;
31206;SDS011;17834;52.992;8.856;2023-07-29T03:58:53;41.65;;;15.27;;
31206;SDS011;17834;52.992;8.856;2023-07-29T04:01:26;35.08;;;13.13;;
31206;SDS011;17834;52.992;8.856;2023-07-29T04:03:52;27.52;;;11.73;;
31206;SDS011;17834;52.992;8.856;2023-07-29T04:06:17;29.95;;;11.40;;
31206;SDS011;17834;52.992;8.856;2023-07-29T04:08:43;42.70;;;13.48;;
31206;SDS011;17834;52.992;8.856;2023-07-29T04:11:09;24.90;;;10.13;;
31206;SDS011;17834;52.992;8.856;2023-07-29T04:13:34;26.98;;;11.32;;
31206;SDS011;17834;52.992;8.856;2023-07-29T04:16:00;21.00;;;9.70;;
31206;SDS011;17834;52.992;8.856;2023-07-29T04:18:25;35.97;;;11.65;;
31206;SDS011;17834;52.992;8.856;2023-07-29T04:20:51;27.60;;;11.07;;
31206;SDS011;17834;52.992;8.856;2023-07-29T04:23:16;21.67;;;10.48;;
31206;SDS011;17834;52.992;8.856;2023-07-29T04:25:42;33.67;;;12.02;;
31206;SDS011;17834;52.992;8.856;2023-07-29T04:28:08;27.90;;;11.00;;
31206;SDS011;17834;52.992;8.856;2023-07-29T04:30:33;19.35;;;10.35;;
31206;SDS011;17834;52.992;8.856;2023-07-29T04:32:59;30.30;;;10.95;;
31206;SDS011;17834;52.992;8.856;2023-07-29T04:35:24;35.00;;;12.45;;
31206;SDS011;17834;52.992;8.856;2023-07-29T04:37:50;25.67;;;10.50;;
31206;SDS011;17834;52.992;8.856;2023-07-29T04:40:16;23.98;;;10.48;;
31206;SDS011;17834;52.992;8.856;2023-07-29T04:42:41;26.38;;;11.32;;
31206;SDS011;17834;52.992;8.856;2023-07-29T04:45:07;30.42;;;12.93;;
31206;SDS011;17834;52.992;8.856;2023-07-29T04:47:33;28.88;;;11.32;;
31206;SDS011;17834;52.992;8.856;2023-07-29T04:49:58;31.15;;;11.95;;
31206;SDS011;17834;52.992;8.856;2023-07-29T04:52:24;24.27;;;10.15;;
31206;SDS011;17834;52.992;8.856;2023-07-29T04:54:50;23.45;;;10.45;;
31206;SDS011;17834;52.992;8.856;2023-07-29T04:57:15;23.20;;;10.63;;
31206;SDS011;17834;52.992;8.856;2023-07-29T04:59:41;22.67;;;9.52;;
31206;SDS011;17834;52.992;8.856;2023-07-29T05:02:06;25.98;;;9.82;;
31206;SDS011;17834;52.992;8.856;2023-07-29T05:04:32;19.50;;;8.95;;
31206;SDS011;17834;52.992;8.856;2023-07-29T05:06:58;22.77;;;9.73;;
31206;SDS011;17834;52.992;8.856;2023-07-29T05:09:23;22.73;;;11.20;;
31206;SDS011;17834;52.992;8.856;2023-07-29T05:11:49;22.88;;;10.77;;
31206;SDS011;17834;52.992;8.856;2023-07-29T05:14:15;28.73;;;13.52;;
31206;SDS011;17834;52.992;8.856;2023-07-29T05:16:41;24.63;;;11.45;;
31206;SDS011;17834;52.992;8.856;2023-07-29T05:19:07;25.77;;;11.75;;
31206;SDS011;17834;52.992;8.856;2023-07-29T05:21:32;25.30;;;11.05;;
31206;SDS011;17834;52.992;8.856;2023-07-29T05:23:58;34.40;;;13.50;;
31206;SDS011;17834;52.992;8.856;2023-07-29T05:26:24;29.02;;;11.88;;
31206;SDS011;17834;52.992;8.856;2023-07-29T05:28:50;27.48;;;10.73;;
31206;SDS011;17834;52.992;8.856;2023-07-29T05:31:15;32.10;;;12.35;;
31206;SDS011;17834;52.992;8.856;2023-07-29T05:33:41;25.50;;;11.18;;
31206;SDS011;17834;52.992;8.856;2023-07-29T05:36:06;27.58;;;12.48;;
31206;SDS011;17834;52.992;8.856;2023-07-29T05:38:32;25.75;;;11.77;;
31206;SDS011;17834;52.992;8.856;2023-07-29T05:40:57;33.90;;;13.48;;
31206;SDS011;17834;52.992;8.856;2023-07-29T05:43:26;25.77;;;10.55;;
31206;SDS011;17834;52.992;8.856;2023-07-29T05:45:52;26.35;;;11.50;;
31206;SDS011;17834;52.992;8.856;2023-07-29T05:48:18;26.83;;;11.57;;
31206;SDS011;17834;52.992;8.856;2023-07-29T05:50:44;19.00;;;10.30;;
31206;SDS011;17834;52.992;8.856;2023-07-29T05:53:10;24.70;;;11.35;;
31206;SDS011;17834;52.992;8.856;2023-07-29T05:55:35;26.10;;;12.30;;
31206;SDS011;17834;52.992;8.856;2023-07-29T05:58:01;24.10;;;11.05;;
31206;SDS011;17834;52.992;8.856;2023-07-29T06:00:26;23.27;;;9.77;;
31206;SDS011;17834;52.992;8.856;2023-07-29T06:02:52;22.95;;;11.57;;
31206;SDS011;17834;52.992;8.856;2023-07-29T06:05:17;25.25;;;11.48;;
31206;SDS011;17834;52.992;8.856;2023-07-29T06:07:43;22.25;;;10.57;;
31206;SDS011;17834;52.992;8.856;2023-07-29T06:10:10;26.25;;;12.07;;
31206;SDS011;17834;52.992;8.856;2023-07-29T06:12:38;24.77;;;11.38;;
31206;SDS011;17834;52.992;8.856;2023-07-29T06:15:04;27.70;;;12.70;;
31206;SDS011;17834;52.992;8.856;2023-07-29T06:17:30;26.50;;;12.80;;
31206;SDS011;17834;52.992;8.856;2023-07-29T06:19:55;22.98;;;11.90;;
31206;SDS011;17834;52.992;8.856;2023-07-29T06:22:21;28.95;;;13.70;;
31206;SDS011;17834;52.992;8.856;2023-07-29T06:24:46;27.73;;;13.40;;
31206;SDS011;17834;52.992;8.856;2023-07-29T06:27:12;30.25;;;13.43;;
31206;SDS011;17834;52.992;8.856;2023-07-29T06:29:38;29.02;;;13.80;;
31206;SDS011;17834;52.992;8.856;2023-07-29T06:32:03;27.60;;;13.68;;
31206;SDS011;17834;52.992;8.856;2023-07-29T06:34:29;27.27;;;13.82;;
31206;SDS011;17834;52.992;8.856;2023-07-29T06:36:55;29.10;;;14.43;;
31206;SDS011;17834;52.992;8.856;2023-07-29T06:39:20;27.52;;;14.30;;
31206;SDS011;17834;52.992;8.856;2023-07-29T06:41:46;25.83;;;13.93;;
31206;SDS011;17834;52.992;8.856;2023-07-29T06:44:11;26.30;;;13.77;;
31206;SDS011;17834;52.992;8.856;2023-07-29T06:46:37;33.10;;;15.48;;
31206;SDS011;17834;52.992;8.856;2023-07-29T06:49:02;28.70;;;15.07;;
31206;SDS011;17834;52.992;8.856;2023-07-29T06:51:28;27.80;;;14.52;;
31206;SDS011;17834;52.992;8.856;2023-07-29T06:53:57;25.48;;;14.88;;
31206;SDS011;17834;52.992;8.856;2023-07-29T06:56:23;28.50;;;15.05;;
31206;SDS011;17834;52.992;8.856;2023-07-29T06:58:48;25.88;;;14.30;;
31206;SDS011;17834;52.992;8.856;2023-07-29T07:01:14;23.42;;;13.85;;
31206;SDS011;17834;52.992;8.856;2023-07-29T07:03:39;21.95;;;13.07;;
31206;SDS011;17834;52.992;8.856;2023-07-29T07:06:05;20.73;;;12.68;;
31206;SDS011;17834;52.992;8.856;2023-07-29T07:08:30;22.67;;;12.45;;
31206;SDS011;17834;52.992;8.856;2023-07-29T07:10:56;20.83;;;13.98;;
31206;SDS011;17834;52.992;8.856;2023-07-29T07:13:22;17.58;;;11.77;;
31206;SDS011;17834;52.992;8.856;2023-07-29T07:15:47;19.38;;;12.02;;
31206;SDS011;17834;52.992;8.856;2023-07-29T07:18:13;19.33;;;11.80;;
31206;SDS011;17834;52.992;8.856;2023-07-29T07:20:39;18.88;;;10.85;;
31206;SDS011;17834;52.992;8.856;2023-07-29T07:23:04;18.33;;;11.05;;
31206;SDS011;17834;52.992;8.856;2023-07-29T07:25:36;15.48;;;9.80;;
31206;SDS011;17834;52.992;8.856;2023-07-29T07:28:02;17.67;;;10.80;;
31206;SDS011;17834;52.992;8.856;2023-07-29T07:30:27;14.15;;;9.20;;
31206;SDS011;17834;52.992;8.856;2023-07-29T07:32:53;15.05;;;9.43;;
31206;SDS011;17834;52.992;8.856;2023-07-29T07:35:18;14.35;;;9.18;;
31206;SDS011;17834;52.992;8.856;2023-07-29T07:37:44;13.75;;;9.07;;
31206;SDS011;17834;52.992;8.856;2023-07-29T07:40:10;11.93;;;8.18;;
31206;SDS011;17834;52.992;8.856;2023-07-29T07:42:36;12.63;;;7.93;;
31206;SDS011;17834;52.992;8.856;2023-07-29T07:45:01;13.90;;;8.18;;
31206;SDS011;17834;52.992;8.856;2023-07-29T07:47:27;11.55;;;7.72;;
31206;SDS011;17834;52.992;8.856;2023-07-29T07:49:53;13.55;;;7.28;;
31206;SDS011;17834;52.992;8.856;2023-07-29T07:52:18;18.98;;;11.15;;
31206;SDS011;17834;52.992;8.856;2023-07-29T07:54:44;17.05;;;9.85;;
31206;SDS011;17834;52.992;8.856;2023-07-29T07:57:09;11.32;;;7.90;;
31206;SDS011;17834;52.992;8.856;2023-07-29T07:59:35;13.15;;;8.38;;
31206;SDS011;17834;52.992;8.856;2023-07-29T08:02:00;13.05;;;6.72;;
31206;SDS011;17834;52.992;8.856;2023-07-29T08:04:26;12.93;;;7.75;;
31206;SDS011;17834;52.992;8.856;2023-07-29T08:06:51;10.10;;;7.00;;
31206;SDS011;17834;52.992;8.856;2023-07-29T08:09:17;11.38;;;7.10;;
31206;SDS011;17834;52.992;8.856;2023-07-29T08:11:42;13.07;;;7.30;;
31206;SDS011;17834;52.992;8.856;2023-07-29T08:14:08;9.13;;;6.68;;
31206;SDS011;17834;52.992;8.856;2023-07-29T08:16:33;10.10;;;6.60;;
31206;SDS011;17834;52.992;8.856;2023-07-29T08:19:00;9.73;;;6.10;;
31206;SDS011;17834;52.992;8.856;2023-07-29T08:21:26;9.63;;;5.70;;
31206;SDS011;17834;52.992;8.856;2023-07-29T08:23:52;8.15;;;5.15;;
31206;SDS011;17834;52.992;8.856;2023-07-29T08:26:17;7.65;;;5.20;;
31206;SDS011;17834;52.992;8.856;2023-07-29T08:28:43;10.88;;;5.15;;
31206;SDS011;17834;52.992;8.856;2023-07-29T08:31:08;6.60;;;4.60;;
31206;SDS011;17834;52.992;8.856;2023-07-29T08:33:34;7.22;;;4.45;;
31206;SDS011;17834;52.992;8.856;2023-07-29T08:36:00;8.07;;;4.35;;
31206;SDS011;17834;52.992;8.856;2023-07-29T08:38:26;5.72;;;3.95;;
31206;SDS011;17834;52.992;8.856;2023-07-29T08:43:39;8.48;;;4.18;;
31206;SDS011;17834;52.992;8.856;2023-07-29T08:46:25;5.72;;;3.55;;
31206;SDS011;17834;52.992;8.856;2023-07-29T08:48:53;8.75;;;4.07;;
31206;SDS011;17834;52.992;8.856;2023-07-29T08:51:19;6.53;;;4.05;;
31206;SDS011;17834;52.992;8.856;2023-07-29T08:53:48;6.45;;;4.35;;
31206;SDS011;17834;52.992;8.856;2023-07-29T08:56:15;5.95;;;3.72;;
31206;SDS011;17834;52.992;8.856;2023-07-29T08:58:40;6.63;;;3.95;;
31206;SDS011;17834;52.992;8.856;2023-07-29T09:01:06;5.90;;;4.13;;
31206;SDS011;17834;52.992;8.856;2023-07-29T09:03:32;5.53;;;3.72;;
31206;SDS011;17834;52.992;8.856;2023-07-29T09:05:58;7.38;;;3.80;;
31206;SDS011;17834;52.992;8.856;2023-07-29T09:08:25;7.00;;;3.60;;
31206;SDS011;17834;52.992;8.856;2023-07-29T09:10:51;6.97;;;4.00;;
31206;SDS011;17834;52.992;8.856;2023-07-29T09:13:17;9.50;;;4.32;;
31206;SDS011;17834;52.992;8.856;2023-07-29T09:15:44;5.53;;;3.90;;
31206;SDS011;17834;52.992;8.856;2023-07-29T09:18:11;10.38;;;5.00;;
31206;SDS011;17834;52.992;8.856;2023-07-29T09:20:40;9.98;;;4.30;;
31206;SDS011;17834;52.992;8.856;2023-07-29T09:23:09;19.75;;;9.25;;
31206;SDS011;17834;52.992;8.856;2023-07-29T09:25:35;9.02;;;4.13;;
31206;SDS011;17834;52.992;8.856;2023-07-29T09:28:07;5.57;;;3.60;;
31206;SDS011;17834;52.992;8.856;2023-07-29T09:30:45;12.10;;;6.38;;
31206;SDS011;17834;52.992;8.856;2023-07-29T09:33:11;7.25;;;5.13;;
31206;SDS011;17834;52.992;8.856;2023-07-29T09:35:37;5.65;;;4.13;;
31206;SDS011;17834;52.992;8.856;2023-07-29T09:38:06;11.05;;;5.45;;
31206;SDS011;17834;52.992;8.856;2023-07-29T09:40:38;17.02;;;8.07;;
31206;SDS011;17834;52.992;8.856;2023-07-29T09:43:05;8.27;;;5.30;;
31206;SDS011;17834;52.992;8.856;2023-07-29T09:45:33;8.68;;;4.90;;
31206;SDS011;17834;52.992;8.856;2023-07-29T09:48:00;7.30;;;4.45;;
31206;SDS011;17834;52.992;8.856;2023-07-29T09:50:26;7.28;;;4.72;;
31206;SDS011;17834;52.992;8.856;2023-07-29T09:52:52;5.57;;;3.80;;
31206;SDS011;17834;52.992;8.856;2023-07-29T09:55:22;5.63;;;3.88;;
31206;SDS011;17834;52.992;8.856;2023-07-29T09:57:59;6.82;;;3.80;;
31206;SDS011;17834;52.992;8.856;2023-07-29T10:00:30;5.45;;;4.07;;
31206;SDS011;17834;52.992;8.856;2023-07-29T10:02:57;4.53;;;2.95;;
31206;SDS011;17834;52.992;8.856;2023-07-29T10:05:25;5.03;;;3.38;;
31206;SDS011;17834;52.992;8.856;2023-07-29T10:07:51;4.60;;;3.38;;
31206;SDS011;17834;52.992;8.856;2023-07-29T10:10:18;5.30;;;3.42;;
31206;SDS011;17834;52.992;8.856;2023-07-29T10:12:45;9.73;;;3.33;;
31206;SDS011;17834;52.992;8.856;2023-07-29T10:15:11;3.53;;;2.83;;
31206;SDS011;17834;52.992;8.856;2023-07-29T10:17:37;4.22;;;2.30;;
31206;SDS011;17834;52.992;8.856;2023-07-29T10:20:04;3.25;;;2.30;;
31206;SDS011;17834;52.992;8.856;2023-07-29T10:22:50;3.20;;;2.15;;
31206;SDS011;17834;52.992;8.856;2023-07-29T10:25:23;6.53;;;2.08;;
31206;SDS011;17834;52.992;8.856;2023-07-29T10:28:04;3.92;;;2.20;;
31206;SDS011;17834;52.992;8.856;2023-07-29T10:30:31;4.50;;;1.98;;
31206;SDS011;17834;52.992;8.856;2023-07-29T10:32:58;2.83;;;2.00;;
31206;SDS011;17834;52.992;8.856;2023-07-29T10:35:26;4.90;;;2.03;;
31206;SDS011;17834;52.992;8.856;2023-07-29T10:37:52;2.97;;;2.10;;
31206;SDS011;17834;52.992;8.856;2023-07-29T10:40:18;4.55;;;2.33;;
31206;SDS011;17834;52.992;8.856;2023-07-29T10:43:09;4.05;;;2.05;;
31206;SDS011;17834;52.992;8.856;2023-07-29T10:45:39;4.60;;;2.17;;
31206;SDS011;17834;52.992;8.856;2023-07-29T10:48:06;2.83;;;1.67;;
31206;SDS011;17834;52.992;8.856;2023-07-29T10:50:36;2.78;;;1.60;;
31206;SDS011;17834;52.992;8.856;2023-07-29T10:53:02;4.32;;;1.88;;
31206;SDS011;17834;52.992;8.856;2023-07-29T10:55:29;3.13;;;1.70;;
31206;SDS011;17834;52.992;8.856;2023-07-29T10:58:07;2.45;;;1.60;;
31206;SDS011;17834;52.992;8.856;2023-07-29T11:00:45;2.88;;;1.88;;
31206;SDS011;17834;52.992;8.856;2023-07-29T11:03:12;3.45;;;1.70;;
31206;SDS011;17834;52.992;8.856;2023-07-29T11:05:42;4.30;;;1.65;;
31206;SDS011;17834;52.992;8.856;2023-07-29T11:08:28;3.20;;;1.10;;
31206;SDS011;17834;52.992;8.856;2023-07-29T11:11:02;3.17;;;1.50;;
31206;SDS011;17834;52.992;8.856;2023-07-29T11:13:29;3.10;;;1.30;;
31206;SDS011;17834;52.992;8.856;2023-07-29T11:15:56;1.90;;;1.00;;
31206;SDS011;17834;52.992;8.856;2023-07-29T11:18:25;2.58;;;1.33;;
31206;SDS011;17834;52.992;8.856;2023-07-29T11:20:56;3.85;;;1.67;;
31206;SDS011;17834;52.992;8.856;2023-07-29T11:23:30;2.15;;;1.20;;
31206;SDS011;17834;52.992;8.856;2023-07-29T11:25:57;3.28;;;1.60;;
31206;SDS011;17834;52.992;8.856;2023-07-29T11:28:23;2.28;;;1.10;;
31206;SDS011;17834;52.992;8.856;2023-07-29T11:30:49;3.08;;;1.40;;
31206;SDS011;17834;52.992;8.856;2023-07-29T11:33:23;2.22;;;1.10;;
31206;SDS011;17834;52.992;8.856;2023-07-29T11:35:50;3.72;;;1.45;;
31206;SDS011;17834;52.992;8.856;2023-07-29T11:38:17;4.38;;;1.85;;
31206;SDS011;17834;52.992;8.856;2023-07-29T11:40:44;3.50;;;1.85;;
31206;SDS011;17834;52.992;8.856;2023-07-29T11:43:23;3.17;;;1.55;;
31206;SDS011;17834;52.992;8.856;2023-07-29T11:45:49;2.58;;;1.40;;
31206;SDS011;17834;52.992;8.856;2023-07-29T11:48:15;2.30;;;1.20;;
31206;SDS011;17834;52.992;8.856;2023-07-29T11:50:41;3.90;;;1.20;;
31206;SDS011;17834;52.992;8.856;2023-07-29T11:53:07;2.35;;;1.67;;
31206;SDS011;17834;52.992;8.856;2023-07-29T11:55:33;2.30;;;1.55;;
31206;SDS011;17834;52.992;8.856;2023-07-29T11:57:58;2.72;;;1.65;;
31206;SDS011;17834;52.992;8.856;2023-07-29T12:00:26;3.72;;;1.58;;
31206;SDS011;17834;52.992;8.856;2023-07-29T12:02:52;2.72;;;2.03;;
31206;SDS011;17834;52.992;8.856;2023-07-29T12:05:18;2.92;;;1.80;;
31206;SDS011;17834;52.992;8.856;2023-07-29T12:07:46;4.05;;;1.92;;
31206;SDS011;17834;52.992;8.856;2023-07-29T12:10:12;2.97;;;1.50;;
31206;SDS011;17834;52.992;8.856;2023-07-29T12:12:48;2.42;;;1.48;;
31206;SDS011;17834;52.992;8.856;2023-07-29T12:15:27;2.95;;;1.88;;
31206;SDS011;17834;52.992;8.856;2023-07-29T12:17:54;2.55;;;1.35;;
31206;SDS011;17834;52.992;8.856;2023-07-29T12:20:21;3.63;;;1.50;;
31206;SDS011;17834;52.992;8.856;2023-07-29T12:22:51;3.40;;;1.48;;
31206;SDS011;17834;52.992;8.856;2023-07-29T12:25:27;2.30;;;1.40;;
31206;SDS011;17834;52.992;8.856;2023-07-29T12:27:53;2.47;;;1.40;;
31206;SDS011;17834;52.992;8.856;2023-07-29T12:30:22;3.70;;;1.20;;
31206;SDS011;17834;52.992;8.856;2023-07-29T12:32:49;4.10;;;1.40;;
31206;SDS011;17834;52.992;8.856;2023-07-29T12:35:15;2.30;;;1.15;;
31206;SDS011;17834;52.992;8.856;2023-07-29T12:37:40;2.05;;;1.17;;
31206;SDS011;17834;52.992;8.856;2023-07-29T12:40:07;2.13;;;1.25;;
31206;SDS011;17834;52.992;8.856;2023-07-29T12:42:45;3.75;;;1.17;;
31206;SDS011;17834;52.992;8.856;2023-07-29T12:45:10;2.08;;;1.05;;
31206;SDS011;17834;52.992;8.856;2023-07-29T12:47:36;1.58;;;1.05;;
31206;SDS011;17834;52.992;8.856;2023-07-29T12:50:01;2.55;;;1.40;;
31206;SDS011;17834;52.992;8.856;2023-07-29T12:52:27;3.30;;;1.27;;
31206;SDS011;17834;52.992;8.856;2023-07-29T12:54:52;3.78;;;0.90;;
31206;SDS011;17834;52.992;8.856;2023-07-29T12:57:18;3.33;;;1.00;;
31206;SDS011;17834;52.992;8.856;2023-07-29T12:59:43;4.15;;;1.33;;
31206;SDS011;17834;52.992;8.856;2023-07-29T13:02:09;3.25;;;1.23;;
31206;SDS011;17834;52.992;8.856;2023-07-29T13:04:34;2.08;;;1.10;;
31206;SDS011;17834;52.992;8.856;2023-07-29T13:07:00;4.88;;;1.13;;
31206;SDS011;17834;52.992;8.856;2023-07-29T13:09:25;4.28;;;1.30;;
31206;SDS011;17834;52.992;8.856;2023-07-29T13:11:51;2.55;;;1.00;;
31206;SDS011;17834;52.992;8.856;2023-07-29T13:14:16;2.13;;;0.85;;
31206;SDS011;17834;52.992;8.856;2023-07-29T13:16:42;3.17;;;2.30;;
31206;SDS011;17834;52.992;8.856;2023-07-29T13:19:07;3.25;;;0.90;;
31206;SDS011;17834;52.992;8.856;2023-07-29T13:21:33;3.13;;;1.23;;
31206;SDS011;17834;52.992;8.856;2023-07-29T13:23:58;1.60;;;0.90;;
31206;SDS011;17834;52.992;8.856;2023-07-29T13:26:24;2.33;;;1.15;;
31206;SDS011;17834;52.992;8.856;2023-07-29T13:28:49;3.47;;;1.20;;
31206;SDS011;17834;52.992;8.856;2023-07-29T13:31:15;2.70;;;1.35;;
31206;SDS011;17834;52.992;8.856;2023-07-29T13:33:40;2.78;;;1.27;;
31206;SDS011;17834;52.992;8.856;2023-07-29T13:36:06;2.20;;;0.98;;
31206;SDS011;17834;52.992;8.856;2023-07-29T13:38:33;4.97;;;1.10;;
31206;SDS011;17834;52.992;8.856;2023-07-29T13:40:58;3.03;;;1.05;;
31206;SDS011;17834;52.992;8.856;2023-07-29T13:43:24;2.28;;;1.15;;
31206;SDS011;17834;52.992;8.856;2023-07-29T13:45:50;2.00;;;1.02;;
31206;SDS011;17834;52.992;8.856;2023-07-29T13:48:15;3.38;;;1.33;;
31206;SDS011;17834;52.992;8.856;2023-07-29T13:50:41;3.03;;;1.30;;
31206;SDS011;17834;52.992;8.856;2023-07-29T13:53:08;2.10;;;0.95;;
31206;SDS011;17834;52.992;8.856;2023-07-29T13:55:34;2.58;;;1.20;;
31206;SDS011;17834;52.992;8.856;2023-07-29T13:57:59;2.78;;;1.25;;
31206;SDS011;17834;52.992;8.856;2023-07-29T14:00:25;4.47;;;1.20;;
31206;SDS011;17834;52.992;8.856;2023-07-29T14:02:50;1.52;;;0.93;;
31206;SDS011;17834;52.992;8.856;2023-07-29T14:05:16;1.90;;;0.90;;
31206;SDS011;17834;52.992;8.856;2023-07-29T14:07:41;1.80;;;1.17;;
31206;SDS011;17834;52.992;8.856;2023-07-29T14:10:07;2.22;;;1.17;;
31206;SDS011;17834;52.992;8.856;2023-07-29T14:12:33;2.03;;;1.05;;
31206;SDS011;17834;52.992;8.856;2023-07-29T14:14:59;4.65;;;1.30;;
31206;SDS011;17834;52.992;8.856;2023-07-29T14:17:25;2.00;;;1.02;;
31206;SDS011;17834;52.992;8.856;2023-07-29T14:19:50;2.13;;;1.10;;
31206;SDS011;17834;52.992;8.856;2023-07-29T14:22:16;2.65;;;1.60;;
31206;SDS011;17834;52.992;8.856;2023-07-29T14:24:41;2.47;;;1.42;;
31206;SDS011;17834;52.992;8.856;2023-07-29T14:27:07;1.85;;;1.08;;
31206;SDS011;17834;52.992;8.856;2023-07-29T14:29:32;2.35;;;1.35;;
31206;SDS011;17834;52.992;8.856;2023-07-29T14:31:58;1.80;;;1.20;;
31206;SDS011;17834;52.992;8.856;2023-07-29T14:34:23;3.65;;;1.13;;
31206;SDS011;17834;52.992;8.856;2023-07-29T14:36:49;2.63;;;1.45;;
31206;SDS011;17834;52.992;8.856;2023-07-29T14:39:14;2.40;;;1.55;;